createdAt,value
2019-02-14T00:00:07.214Z,4.30
2019-02-14T00:02:36.591Z,4.40
2019-02-14T00:05:15.874Z,4.50
2019-02-14T00:07:36.952Z,4.30
2019-02-14T00:10:06.648Z,4.30
2019-02-14T00:12:35.995Z,4.30
2019-02-14T00:15:07.404Z,4.30
2019-02-14T00:17:36.861Z,4.20
2019-02-14T00:20:07.160Z,4.20
2019-02-14T00:22:36.491Z,4.20
2019-02-14T00:25:06.512Z,4.20
2019-02-14T00:27:35.947Z,4.10
2019-02-14T00:30:05.484Z,4.20
2019-02-14T00:32:34.890Z,4.20
2019-02-14T00:35:05.183Z,4.20
2019-02-14T00:37:34.524Z,4.20
2019-02-14T00:40:03.835Z,4.20
2019-02-14T00:42:33.255Z,4.20
2019-02-14T00:45:02.625Z,4.10
2019-02-14T00:47:31.934Z,4.20
2019-02-14T00:50:01.857Z,4.10
2019-02-14T00:52:31.257Z,4.20
2019-02-14T00:55:01.571Z,4.10
2019-02-14T00:57:31.817Z,4.00
2019-02-14T01:00:01.199Z,4.00
2019-02-14T01:02:30.596Z,4.00
2019-02-14T01:05:03.665Z,3.90
2019-02-14T01:07:33.016Z,3.90
2019-02-14T01:10:02.377Z,4.00
2019-02-14T01:12:31.780Z,3.90
2019-02-14T01:15:01.095Z,3.90
2019-02-14T01:17:30.430Z,4.00
2019-02-14T01:19:59.812Z,4.00
2019-02-14T01:22:29.148Z,4.00
2019-02-14T01:24:58.521Z,4.00
2019-02-14T01:27:27.899Z,3.90
2019-02-14T01:29:57.254Z,3.90
2019-02-14T01:32:27.182Z,3.70
2019-02-14T01:34:56.471Z,3.30
2019-02-14T01:37:25.810Z,3.40
2019-02-14T01:39:55.132Z,3.50
2019-02-14T01:42:24.493Z,3.60
2019-02-14T01:44:53.899Z,3.60
2019-02-14T01:47:23.280Z,3.70
2019-02-14T01:49:52.631Z,3.70
2019-02-14T01:52:22.038Z,3.70
2019-02-14T01:54:51.402Z,3.80
2019-02-14T01:57:20.745Z,3.70
2019-02-14T01:59:50.127Z,3.70
2019-02-14T02:02:19.459Z,3.80
2019-02-14T02:04:48.783Z,3.80
2019-02-14T02:07:18.144Z,3.80
2019-02-14T02:09:47.496Z,3.70
2019-02-14T02:12:16.908Z,3.70
2019-02-14T02:14:46.268Z,3.80
2019-02-14T02:17:15.605Z,3.80
2019-02-14T02:19:44.969Z,3.90
2019-02-14T02:22:14.377Z,3.90
2019-02-14T02:24:44.238Z,3.90
2019-02-14T02:27:14.562Z,3.90
2019-02-14T02:29:43.935Z,3.90
2019-02-14T02:32:14.107Z,3.90
2019-02-14T02:34:44.418Z,4.00
2019-02-14T02:37:13.740Z,4.00
2019-02-14T02:39:43.784Z,3.90
2019-02-14T02:42:13.089Z,3.90
2019-02-14T02:44:42.422Z,3.90
2019-02-14T02:47:11.806Z,3.80
2019-02-14T02:49:41.111Z,3.70
2019-02-14T02:52:10.452Z,3.80
2019-02-14T02:54:39.757Z,3.80
2019-02-14T02:57:09.170Z,3.70
2019-02-14T02:59:39.226Z,3.80
2019-02-14T03:02:08.497Z,3.80
2019-02-14T03:04:38.311Z,3.70
2019-02-14T03:07:08.557Z,3.50
2019-02-14T03:09:37.993Z,3.40
2019-02-14T03:12:07.341Z,3.20
2019-02-14T03:14:36.746Z,3.20
2019-02-14T03:17:06.085Z,3.30
2019-02-14T03:19:36.246Z,3.30
2019-02-14T03:22:05.589Z,3.30
2019-02-14T03:24:34.944Z,3.40
2019-02-14T03:27:04.360Z,3.50
2019-02-14T03:29:33.720Z,3.50
2019-02-14T03:32:03.197Z,3.50
2019-02-14T03:34:32.604Z,3.50
2019-02-14T03:37:01.946Z,3.50
2019-02-14T03:39:31.280Z,3.50
2019-02-14T03:42:00.673Z,3.50
2019-02-14T03:44:30.065Z,3.50
2019-02-14T03:46:59.444Z,3.50
2019-02-14T03:49:28.731Z,3.50
2019-02-14T03:51:58.080Z,3.60
2019-02-14T03:54:27.440Z,3.70
2019-02-14T03:56:56.735Z,3.60
2019-02-14T03:59:26.071Z,3.50
2019-02-14T04:01:55.440Z,3.50
2019-02-14T04:04:25.855Z,3.40
2019-02-14T04:06:55.252Z,3.30
2019-02-14T04:09:24.681Z,3.30
2019-02-14T04:11:54.132Z,3.30
2019-02-14T04:14:23.515Z,3.30
2019-02-14T04:16:53.446Z,3.30
2019-02-14T04:19:22.882Z,3.20
2019-02-14T04:21:52.225Z,3.20
2019-02-14T04:24:21.492Z,3.00
2019-02-14T04:26:52.271Z,3.10
2019-02-14T04:29:21.582Z,3.20
2019-02-14T04:31:50.871Z,3.30
2019-02-14T04:34:20.204Z,3.30
2019-02-14T04:36:49.642Z,3.30
2019-02-14T04:39:19.625Z,3.30
2019-02-14T04:41:49.004Z,3.30
2019-02-14T04:44:18.463Z,3.20
2019-02-14T04:46:47.832Z,3.20
2019-02-14T04:49:17.156Z,3.30
2019-02-14T04:51:46.480Z,3.10
2019-02-14T04:54:15.828Z,3.00
2019-02-14T04:56:45.179Z,3.00
2019-02-14T04:59:14.601Z,3.00
2019-02-14T05:01:44.042Z,3.00
2019-02-14T05:04:13.401Z,2.90
2019-02-14T05:06:44.398Z,2.80
2019-02-14T05:09:12.229Z,2.90
2019-02-14T05:11:41.635Z,3.00
2019-02-14T05:14:11.008Z,3.00
2019-02-14T05:16:40.362Z,3.10
2019-02-14T05:19:09.715Z,3.20
2019-02-14T05:21:39.094Z,3.20
2019-02-14T05:24:09.363Z,3.10
2019-02-14T05:26:38.710Z,3.20
2019-02-14T05:29:08.085Z,3.00
2019-02-14T05:31:37.637Z,3.10
2019-02-14T05:34:07.509Z,3.00
2019-02-14T05:36:36.848Z,3.00
2019-02-14T05:39:07.587Z,3.00
2019-02-14T05:41:36.981Z,3.00
2019-02-14T05:44:06.340Z,3.00
2019-02-14T05:46:35.787Z,2.90
2019-02-14T05:49:05.156Z,2.90
2019-02-14T05:51:34.558Z,2.90
2019-02-14T05:54:03.997Z,3.10
2019-02-14T05:56:33.361Z,3.10
2019-02-14T05:59:02.778Z,3.10
2019-02-14T06:01:32.192Z,3.10
2019-02-14T06:04:02.445Z,3.10
2019-02-14T06:06:31.905Z,3.10
2019-02-14T06:09:01.376Z,3.10
2019-02-14T06:11:30.765Z,2.90
2019-02-14T06:14:00.183Z,2.90
2019-02-14T06:16:29.549Z,3.00
2019-02-14T06:18:58.875Z,3.00
2019-02-14T06:21:28.191Z,3.00
2019-02-14T06:23:58.016Z,2.90
2019-02-14T06:28:56.499Z,2.90
2019-02-14T06:31:25.775Z,3.00
2019-02-14T06:33:55.154Z,3.00
2019-02-14T06:36:24.451Z,3.00
2019-02-14T06:38:53.787Z,3.00
2019-02-14T06:41:23.123Z,2.90
2019-02-14T06:43:52.471Z,2.90
2019-02-14T06:46:21.764Z,3.00
2019-02-14T06:48:51.090Z,2.90
2019-02-14T06:51:20.494Z,3.00
2019-02-14T06:53:49.858Z,3.00
2019-02-14T06:56:19.187Z,3.00
2019-02-14T06:58:48.564Z,3.10
2019-02-14T07:01:17.925Z,3.20
2019-02-14T07:06:16.239Z,3.30
2019-02-14T07:08:46.623Z,3.30
2019-02-14T07:11:16.010Z,3.30
2019-02-14T07:13:45.367Z,3.30
2019-02-14T07:16:14.952Z,3.30
2019-02-14T07:18:44.337Z,3.30
2019-02-14T07:21:13.757Z,3.30
2019-02-14T07:23:43.119Z,3.20
2019-02-14T07:26:12.413Z,3.30
2019-02-14T07:28:41.768Z,3.40
2019-02-14T07:31:11.127Z,3.40
2019-02-14T07:33:40.920Z,3.40
2019-02-14T07:36:10.364Z,3.50
2019-02-14T07:38:39.712Z,3.50
2019-02-14T07:41:09.043Z,3.60
2019-02-14T07:43:38.389Z,3.60
2019-02-14T07:46:07.775Z,3.60
2019-02-14T07:48:37.190Z,3.60
2019-02-14T07:51:06.509Z,3.30
2019-02-14T07:53:36.830Z,3.20
2019-02-14T07:56:06.280Z,3.20
2019-02-14T07:58:35.672Z,3.20
2019-02-14T08:01:05.076Z,3.10
2019-02-14T08:03:34.436Z,3.00
2019-02-14T08:06:03.808Z,3.10
2019-02-14T08:08:33.244Z,3.20
2019-02-14T08:11:02.635Z,3.10
2019-02-14T08:13:31.948Z,3.10
2019-02-14T08:16:01.315Z,3.10
2019-02-14T08:18:30.629Z,3.10
2019-02-14T08:20:59.949Z,3.10
2019-02-14T08:23:29.355Z,3.00
2019-02-14T08:25:58.703Z,2.90
2019-02-14T08:28:28.144Z,3.00
2019-02-14T08:30:57.758Z,3.00
2019-02-14T08:33:27.147Z,3.10
2019-02-14T08:35:56.493Z,3.10
2019-02-14T08:38:25.836Z,3.10
2019-02-14T08:40:55.412Z,3.10
2019-02-14T08:43:24.676Z,3.20
2019-02-14T08:45:54.072Z,3.30
2019-02-14T08:48:23.444Z,3.40
2019-02-14T08:50:52.916Z,3.40
2019-02-14T08:53:22.329Z,3.50
2019-02-14T08:55:51.731Z,3.70
2019-02-14T08:58:21.160Z,3.70
2019-02-14T09:00:50.615Z,3.60
2019-02-14T09:03:20.038Z,3.60
2019-02-14T09:05:49.410Z,3.70
2019-02-14T09:08:18.948Z,3.70
2019-02-14T09:10:49.263Z,3.80
2019-02-14T09:13:18.599Z,3.90
2019-02-14T09:15:48.235Z,4.10
2019-02-14T09:18:17.622Z,4.30
2019-02-14T09:20:47.007Z,4.40
2019-02-14T09:23:16.393Z,4.60
2019-02-14T09:25:45.876Z,4.80
2019-02-14T09:28:15.357Z,5.00
2019-02-14T09:30:44.825Z,5.00
2019-02-14T09:33:14.208Z,5.10
2019-02-14T09:35:43.608Z,5.10
2019-02-14T09:38:13.006Z,5.10
2019-02-14T09:40:42.437Z,5.20
2019-02-14T09:43:11.862Z,5.30
2019-02-14T09:45:41.196Z,5.40
2019-02-14T09:48:10.578Z,5.50
2019-02-14T09:50:39.928Z,5.60
2019-02-14T09:53:09.690Z,5.70
2019-02-14T09:55:39.613Z,5.80
2019-02-14T09:58:09.923Z,5.90
2019-02-14T10:00:39.851Z,6.00
2019-02-14T10:03:09.241Z,5.90
2019-02-14T10:05:38.613Z,5.90
2019-02-14T10:08:12.969Z,5.80
2019-02-14T10:10:38.240Z,5.90
2019-02-14T10:13:07.602Z,6.00
2019-02-14T10:15:36.992Z,6.20
2019-02-14T10:18:06.353Z,6.30
2019-02-14T10:20:35.789Z,6.30
2019-02-14T10:23:05.245Z,6.30
2019-02-14T10:25:34.612Z,6.40
2019-02-14T10:28:04.057Z,6.40
2019-02-14T10:30:33.478Z,6.40
2019-02-14T10:33:03.029Z,6.40
2019-02-14T10:35:32.455Z,6.50
2019-02-14T10:38:01.955Z,6.60
2019-02-14T10:40:31.341Z,6.50
2019-02-14T10:43:01.214Z,6.60
2019-02-14T10:45:30.690Z,6.80
2019-02-14T10:48:00.236Z,6.90
2019-02-14T10:50:30.272Z,7.00
2019-02-14T10:52:59.576Z,6.90
2019-02-14T10:55:29.029Z,7.00
2019-02-14T10:57:58.385Z,7.10
2019-02-14T11:00:29.200Z,7.30
2019-02-14T11:02:58.574Z,7.30
2019-02-14T11:05:27.936Z,7.50
2019-02-14T11:07:57.340Z,7.80
2019-02-14T11:10:26.712Z,7.70
2019-02-14T11:12:58.408Z,7.80
2019-02-14T11:15:28.319Z,7.90
2019-02-14T11:17:57.717Z,8.10
2019-02-14T11:20:27.907Z,8.10
2019-02-14T11:22:57.635Z,8.00
2019-02-14T11:25:30.450Z,8.00
2019-02-14T11:27:59.805Z,8.00
2019-02-14T11:30:29.230Z,8.10
2019-02-14T11:32:58.601Z,8.00
2019-02-14T11:35:28.042Z,8.00
2019-02-14T11:37:57.456Z,8.20
2019-02-14T11:40:26.842Z,8.30
2019-02-14T11:42:56.251Z,8.30
2019-02-14T11:45:26.485Z,8.30
2019-02-14T11:47:55.877Z,8.10
2019-02-14T11:50:25.275Z,8.10
2019-02-14T11:52:54.671Z,8.10
2019-02-14T11:55:24.460Z,8.20
2019-02-14T11:57:54.008Z,8.40
2019-02-14T12:00:26.431Z,8.30
2019-02-14T12:02:56.427Z,8.30
2019-02-14T12:05:25.199Z,8.30
2019-02-14T12:07:54.624Z,8.40
2019-02-14T12:10:23.961Z,8.40
2019-02-14T12:12:53.941Z,8.50
2019-02-14T12:15:23.618Z,8.60
2019-02-14T12:17:52.772Z,8.60
2019-02-14T12:20:22.663Z,8.80
2019-02-14T12:22:53.135Z,8.90
2019-02-14T12:25:22.615Z,9.10
2019-02-14T12:27:52.016Z,9.30
2019-02-14T12:30:21.358Z,9.50
2019-02-14T12:32:50.798Z,9.40
2019-02-14T12:35:20.215Z,9.50
2019-02-14T12:37:49.600Z,9.30
2019-02-14T12:40:19.044Z,9.60
2019-02-14T12:42:48.453Z,9.70
2019-02-14T12:45:20.470Z,9.90
2019-02-14T12:47:48.261Z,10.00
2019-02-14T12:50:17.757Z,9.90
2019-02-14T12:52:47.266Z,10.00
2019-02-14T12:55:16.645Z,10.20
2019-02-14T12:57:46.089Z,10.30
2019-02-14T13:00:19.292Z,10.30
2019-02-14T13:02:48.958Z,10.20
2019-02-14T13:05:18.377Z,10.10
2019-02-14T13:07:48.329Z,10.20
2019-02-14T13:10:18.725Z,10.50
2019-02-14T13:12:48.148Z,10.60
2019-02-14T13:15:19.980Z,10.50
2019-02-14T13:17:49.391Z,10.70
2019-02-14T13:20:19.426Z,10.70
2019-02-14T13:22:48.775Z,10.80
2019-02-14T13:25:18.210Z,10.60
2019-02-14T13:27:47.591Z,10.40
2019-02-14T13:30:20.497Z,10.50
2019-02-14T13:32:49.952Z,10.40
2019-02-14T13:35:19.376Z,10.50
2019-02-14T13:37:49.542Z,10.60
2019-02-14T13:40:19.029Z,10.70
2019-02-14T13:42:49.252Z,10.80
2019-02-14T13:45:21.676Z,10.80
2019-02-14T13:47:51.064Z,10.70
2019-02-14T13:50:24.503Z,10.60
2019-02-14T13:52:54.508Z,10.50
2019-02-14T13:55:24.428Z,10.40
2019-02-14T13:57:53.788Z,10.50
2019-02-14T14:00:26.764Z,10.70
2019-02-14T14:02:56.420Z,10.90
2019-02-14T14:05:25.872Z,10.90
2019-02-14T14:07:55.288Z,11.10
2019-02-14T14:10:25.445Z,11.10
2019-02-14T14:12:54.953Z,11.20
2019-02-14T14:15:24.351Z,11.40
2019-02-14T14:17:53.812Z,11.70
2019-02-14T14:20:23.241Z,11.90
2019-02-14T14:22:52.718Z,11.90
2019-02-14T14:25:22.175Z,11.90
2019-02-14T14:27:51.590Z,12.10
2019-02-14T14:30:20.985Z,12.30
2019-02-14T14:32:50.485Z,12.30
2019-02-14T14:35:22.035Z,12.30
2019-02-14T14:37:51.985Z,12.40
2019-02-14T14:40:21.935Z,12.60
2019-02-14T14:43:53.817Z,12.80
2019-02-14T14:46:29.736Z,13.60
2019-02-14T14:48:59.116Z,15.20
2019-02-14T14:51:30.037Z,17.00
2019-02-14T14:53:59.432Z,18.80
2019-02-14T14:56:28.844Z,19.90
2019-02-14T14:58:58.831Z,20.40
2019-02-14T15:01:28.220Z,21.30
2019-02-14T15:03:57.725Z,22.50
2019-02-14T15:06:27.094Z,23.20
2019-02-14T15:08:56.904Z,23.00
2019-02-14T15:11:32.915Z,23.60
2019-02-14T15:14:03.281Z,25.10
2019-02-14T15:16:33.942Z,26.30
2019-02-14T15:19:03.922Z,23.70
2019-02-14T15:21:35.328Z,21.70
2019-02-14T15:24:04.676Z,18.90
2019-02-14T15:26:34.104Z,17.30
2019-02-14T15:29:03.545Z,16.20
2019-02-14T15:31:32.944Z,15.00
2019-02-14T15:34:02.342Z,14.20
2019-02-14T15:36:31.732Z,13.80
2019-02-14T15:39:01.079Z,13.40
2019-02-14T15:41:30.544Z,12.90
2019-02-14T15:44:00.079Z,12.60
2019-02-14T15:46:29.527Z,12.50
2019-02-14T15:48:58.986Z,12.20
2019-02-14T15:51:28.369Z,11.90
2019-02-14T15:53:59.766Z,11.70
2019-02-14T15:56:29.946Z,11.50
2019-02-14T15:58:58.886Z,11.30
2019-02-14T16:01:28.372Z,11.30
2019-02-14T16:03:57.752Z,11.20
2019-02-14T16:06:28.400Z,11.00
2019-02-14T16:08:56.514Z,10.90
2019-02-14T16:11:25.981Z,10.90
2019-02-14T16:13:57.171Z,10.90
2019-02-14T16:16:24.970Z,11.00
2019-02-14T16:18:54.373Z,10.90
2019-02-14T16:21:23.796Z,10.90
2019-02-14T16:23:55.075Z,10.80
2019-02-14T16:26:22.597Z,10.70
2019-02-14T16:28:52.314Z,10.50
2019-02-14T16:31:21.733Z,10.40
2019-02-14T16:33:51.257Z,10.30
2019-02-14T16:36:21.220Z,10.40
2019-02-14T16:38:53.097Z,10.40
2019-02-14T16:41:22.513Z,10.30
2019-02-14T16:43:52.069Z,10.30
2019-02-14T16:46:21.381Z,10.30
2019-02-14T16:48:50.769Z,10.20
2019-02-14T16:51:20.199Z,10.20
2019-02-14T16:53:49.602Z,10.10
2019-02-14T16:56:19.043Z,10.10
2019-02-14T16:58:48.438Z,10.00
2019-02-14T17:01:17.844Z,10.00
2019-02-14T17:03:47.255Z,10.00
2019-02-14T17:06:16.736Z,9.90
2019-02-14T17:08:46.013Z,9.70
2019-02-14T17:11:15.412Z,9.60
2019-02-14T17:13:44.792Z,9.40
2019-02-14T17:16:14.215Z,9.40
2019-02-14T17:18:43.675Z,9.40
2019-02-14T17:21:13.019Z,9.40
2019-02-14T17:23:42.367Z,9.50
2019-02-14T17:26:11.748Z,9.60
2019-02-14T17:28:41.112Z,9.50
2019-02-14T17:31:10.509Z,9.50
2019-02-14T17:33:45.073Z,9.40
2019-02-14T17:36:14.913Z,9.30
2019-02-14T17:38:44.290Z,9.40
2019-02-14T17:41:13.776Z,9.40
2019-02-14T17:43:43.284Z,9.30
2019-02-14T17:46:12.742Z,9.30
2019-02-14T17:48:42.225Z,9.30
2019-02-14T17:51:11.613Z,9.30
2019-02-14T17:53:40.984Z,9.30
2019-02-14T17:56:10.564Z,9.30
2019-02-14T17:58:40.098Z,9.20
2019-02-14T18:01:09.548Z,9.20
2019-02-14T18:03:39.047Z,9.20
2019-02-14T18:06:08.723Z,9.10
2019-02-14T18:08:38.120Z,9.10
2019-02-14T18:11:07.538Z,9.10
2019-02-14T18:13:39.912Z,9.10
2019-02-14T18:16:09.401Z,9.10
2019-02-14T18:18:38.841Z,9.00
2019-02-14T18:21:08.347Z,9.00
2019-02-14T18:23:37.880Z,8.90
2019-02-14T18:26:07.454Z,8.90
2019-02-14T18:28:36.937Z,8.80
2019-02-14T18:31:06.376Z,8.80
2019-02-14T18:33:35.857Z,8.80
2019-02-14T18:36:05.304Z,8.50
2019-02-14T18:38:34.658Z,8.40
2019-02-14T18:41:04.547Z,8.40
2019-02-14T18:43:33.615Z,8.40
2019-02-14T18:46:03.032Z,8.40
2019-02-14T18:48:32.481Z,8.20
2019-02-14T18:51:01.890Z,8.30
2019-02-14T18:53:31.350Z,8.30
2019-02-14T18:56:00.882Z,8.30
2019-02-14T18:58:30.261Z,8.30
2019-02-14T19:00:59.796Z,8.30
2019-02-14T19:03:29.320Z,8.30
2019-02-14T19:05:58.810Z,8.20
2019-02-14T19:08:28.331Z,8.20
2019-02-14T19:10:57.810Z,8.00
2019-02-14T19:13:27.228Z,8.00
2019-02-14T19:15:56.706Z,8.00
2019-02-14T19:18:26.128Z,8.00
2019-02-14T19:20:55.473Z,7.90
2019-02-14T19:23:24.862Z,7.90
2019-02-14T19:25:54.284Z,7.90
2019-02-14T19:28:23.733Z,7.90
2019-02-14T19:30:53.179Z,7.90
2019-02-14T19:33:22.630Z,7.90
2019-02-14T19:35:51.967Z,7.90
2019-02-14T19:38:21.448Z,7.70
2019-02-14T19:40:50.971Z,7.50
2019-02-14T19:43:20.390Z,7.30
2019-02-14T19:45:49.873Z,7.30
2019-02-14T19:48:19.410Z,7.30
2019-02-14T19:50:48.820Z,7.40
2019-02-14T19:53:18.301Z,7.40
2019-02-14T19:55:47.707Z,7.50
2019-02-14T19:58:17.140Z,7.50
2019-02-14T20:00:46.499Z,7.50
2019-02-14T20:03:16.127Z,7.50
2019-02-14T20:05:45.610Z,7.50
2019-02-14T20:08:15.015Z,7.50
2019-02-14T20:10:44.456Z,7.40
2019-02-14T20:13:13.896Z,7.10
2019-02-14T20:15:43.510Z,7.10
2019-02-14T20:18:12.947Z,7.00
2019-02-14T20:20:42.378Z,6.90
2019-02-14T20:23:11.872Z,6.70
2019-02-14T20:25:41.377Z,6.70
2019-02-14T20:28:10.777Z,6.80
2019-02-14T20:30:40.137Z,6.80
2019-02-14T20:33:09.653Z,6.90
2019-02-14T20:35:39.097Z,7.00
2019-02-14T20:38:08.596Z,7.10
2019-02-14T20:40:40.873Z,7.10
2019-02-14T20:43:10.389Z,7.10
2019-02-14T20:45:39.780Z,7.10
2019-02-14T20:48:09.209Z,7.10
2019-02-14T20:50:38.839Z,7.10
2019-02-14T20:53:08.223Z,7.00
2019-02-14T20:55:37.652Z,7.00
2019-02-14T20:58:07.074Z,7.00
2019-02-14T21:00:37.498Z,7.00
2019-02-14T21:03:06.985Z,7.10
2019-02-14T21:05:36.490Z,7.10
2019-02-14T21:08:12.538Z,7.10
2019-02-14T21:10:42.064Z,7.10
2019-02-14T21:13:11.478Z,7.10
2019-02-14T21:15:40.912Z,7.10
2019-02-14T21:18:10.459Z,7.10
2019-02-14T21:20:39.960Z,7.10
2019-02-14T21:23:09.594Z,7.10
2019-02-14T21:25:39.280Z,7.10
2019-02-14T21:28:08.883Z,7.10
2019-02-14T21:30:38.362Z,7.10
2019-02-14T21:33:07.875Z,7.20
2019-02-14T21:35:37.361Z,7.10
2019-02-14T21:38:06.814Z,7.10
2019-02-14T21:40:36.303Z,7.10
2019-02-14T21:43:05.745Z,7.10
2019-02-14T21:45:35.338Z,7.10
2019-02-14T21:48:04.846Z,7.10
2019-02-14T21:50:34.478Z,7.10
2019-02-14T21:53:03.973Z,7.00
2019-02-14T21:55:33.462Z,7.10
2019-02-14T21:58:04.919Z,7.10
2019-02-14T22:00:33.393Z,7.10
2019-02-14T22:03:02.909Z,7.10
2019-02-14T22:05:32.513Z,7.10
2019-02-14T22:08:01.969Z,7.10
2019-02-14T22:10:31.389Z,7.10
2019-02-14T22:13:00.743Z,7.10
2019-02-14T22:15:30.277Z,7.10
2019-02-14T22:17:59.734Z,7.00
2019-02-14T22:20:29.148Z,7.10
2019-02-14T22:22:58.602Z,7.10
2019-02-14T22:25:28.007Z,7.00
2019-02-14T22:27:57.458Z,7.00
2019-02-14T22:30:26.924Z,6.90
2019-02-14T22:32:56.397Z,7.00
2019-02-14T22:35:25.821Z,6.90
2019-02-14T22:37:55.358Z,6.90
2019-02-14T22:40:24.813Z,6.80
2019-02-14T22:42:54.394Z,6.80
2019-02-14T22:45:23.828Z,6.80
2019-02-14T22:47:53.301Z,6.90
2019-02-14T22:50:22.733Z,6.80
2019-02-14T22:52:52.275Z,6.60
2019-02-14T22:55:21.734Z,6.60
2019-02-14T22:57:51.101Z,6.60
2019-02-14T23:00:31.011Z,6.60
2019-02-14T23:03:00.373Z,6.60
2019-02-14T23:05:29.845Z,6.60
2019-02-14T23:07:59.302Z,6.60
2019-02-14T23:10:28.741Z,6.60
2019-02-14T23:12:58.182Z,6.50
2019-02-14T23:15:27.588Z,6.50
2019-02-14T23:17:57.018Z,6.40
2019-02-14T23:20:26.478Z,6.40
2019-02-14T23:22:56.020Z,6.40
2019-02-14T23:25:25.537Z,6.40
2019-02-14T23:27:54.992Z,6.40
2019-02-14T23:30:24.499Z,6.50
2019-02-14T23:32:54.045Z,6.40
2019-02-14T23:35:23.449Z,6.40
2019-02-14T23:37:52.907Z,6.40
2019-02-14T23:40:22.293Z,6.40
2019-02-14T23:42:51.677Z,6.30
2019-02-14T23:45:21.072Z,6.20
2019-02-14T23:47:50.598Z,6.20
2019-02-14T23:50:19.980Z,6.20
2019-02-14T23:52:49.364Z,6.20
2019-02-14T23:55:18.799Z,6.30
2019-02-14T23:57:48.163Z,6.30
